Date,TemperatureHighF,TemperatureAvgF,TemperatureLowF,DewpointHighF,DewpointAvgF,DewpointLowF,HumidityHigh,HumidityAvg,HumidityLow,PressureMaxIn,PressureMinIn,WindSpeedMaxMPH,WindSpeedAvgMPH,GustSpeedMaxMPH,PrecipitationSumIn
2013-12-1,55,44,36,33,26,22,59,50,34,0.00,0.00,0,0,0,0.00
2013-12-2,58,49,42,27,23,18,49,36,23,24.25,24.25,0,0,0,0.00
2013-12-3,42,38,35,25,18,5,55,19,1,0.00,0.00,0,0,0,0.21
2013-12-4,30,24,20,28,15,4,47,22,1,23.87,0.00,0,0,0,0.08
2013-12-5,28,22,18,29,19,1,55,21,1,23.93,0.00,0,0,0,0.00
2013-12-6,32,24,17,15,7,1,59,48,33,0.00,0.00,0,0,0,0.00
2013-12-7,26,23,20,27,17,0,56,18,1,23.84,23.84,0,0,0,0.00
2013-12-8,26,20,13,12,5,0,57,50,38,0.00,0.00,0,0,0,0.00
2013-12-9,31,21,14,10,6,0,59,44,35,24.18,24.18,0,0,0,0.00
2013-12-10,42,30,21,16,10,6,55,44,29,0.00,0.00,0,0,0,0.19
2013-12-11,45,35,28,21,16,12,54,46,37,24.22,0.00,0,0,0,0.19
2013-12-12,48,38,31,17,15,12,52,40,27,0.00,0.00,0,0,0,0.08
2013-12-13,46,38,31,21,16,12,53,41,28,0.00,0.00,0,0,0,0.02
2013-12-14,48,37,30,20,18,16,56,47,31,0.00,0.00,0,0,0,0.00
2013-12-15,54,42,36,24,21,18,52,43,29,0.00,0.00,0,0,0,0.00
2013-12-16,57,46,40,29,24,22,49,43,33,0.00,0.00,0,0,0,0.00
2013-12-17,58,48,42,28,24,21,45,39,27,24.34,0.00,0,0,0,0.00
2013-12-18,55,50,46,31,26,23,49,40,32,24.14,24.14,0,0,0,0.00
2013-12-19,41,33,29,22,19,17,56,14,1,0.00,0.00,0,0,0,0.04
2013-12-20,38,30,26,24,20,9,31,3,1,0.00,0.00,0,0,0,0.04
2013-12-21,43,35,30,26,12,0,50,31,11,23.99,0.00,0,0,0,0.04
2013-12-22,48,39,34,28,16,0,52,32,11,0.00,0.00,0,0,0,0.00
2013-12-23,52,41,34,30,19,6,51,42,29,0.00,0.00,0,0,0,0.00